sensor_id;sensor_type;location;lat;lon;timestamp;pressure;altitude;pressure_sealevel;temperature;humidity
69524;BME280;56723;42.694;23.286;2023-02-18T00:01:02;95841.16;;;2.86;62.85
69524;BME280;56723;42.694;23.286;2023-02-18T00:03:34;95834.59;;;2.82;62.80
69524;BME280;56723;42.694;23.286;2023-02-18T00:06:10;95832.63;;;2.73;63.73
69524;BME280;56723;42.694;23.286;2023-02-18T00:08:37;95825.34;;;2.67;64.06
69524;BME280;56723;42.694;23.286;2023-02-18T00:11:05;95825.53;;;2.64;64.38
69524;BME280;56723;42.694;23.286;2023-02-18T00:13:32;95820.72;;;2.59;64.36
69524;BME280;56723;42.694;23.286;2023-02-18T00:16:04;95831.34;;;2.53;64.79
69524;BME280;56723;42.694;23.286;2023-02-18T00:18:32;95823.13;;;2.48;64.87
69524;BME280;56723;42.694;23.286;2023-02-18T00:20:59;95818.19;;;2.45;65.54
69524;BME280;56723;42.694;23.286;2023-02-18T00:23:26;95811.94;;;2.36;65.55
69524;BME280;56723;42.694;23.286;2023-02-18T00:26:33;95802.34;;;2.40;65.22
69524;BME280;56723;42.694;23.286;2023-02-18T00:28:53;95785.53;;;2.36;65.50
69524;BME280;56723;42.694;23.286;2023-02-18T00:31:23;95800.25;;;2.32;66.63
69524;BME280;56723;42.694;23.286;2023-02-18T00:33:51;95797.69;;;2.32;66.33
69524;BME280;56723;42.694;23.286;2023-02-18T00:36:20;95792.22;;;2.24;66.91
69524;BME280;56723;42.694;23.286;2023-02-18T00:38:49;95798.16;;;2.25;66.50
69524;BME280;56723;42.694;23.286;2023-02-18T00:41:17;95775.47;;;2.20;66.74
69524;BME280;56723;42.694;23.286;2023-02-18T00:43:45;95793.88;;;2.25;66.71
69524;BME280;56723;42.694;23.286;2023-02-18T00:46:12;95784.66;;;2.23;66.46
69524;BME280;56723;42.694;23.286;2023-02-18T00:48:40;95788.16;;;2.22;66.64
69524;BME280;56723;42.694;23.286;2023-02-18T00:51:09;95784.03;;;2.19;67.01
69524;BME280;56723;42.694;23.286;2023-02-18T00:53:37;95792.53;;;2.20;66.86
69524;BME280;56723;42.694;23.286;2023-02-18T00:56:05;95798.56;;;2.19;67.31
69524;BME280;56723;42.694;23.286;2023-02-18T00:58:34;95789.44;;;2.15;67.08
69524;BME280;56723;42.694;23.286;2023-02-18T01:01:04;95777.66;;;2.12;67.49
69524;BME280;56723;42.694;23.286;2023-02-18T01:03:33;95789.53;;;2.13;67.72
69524;BME280;56723;42.694;23.286;2023-02-18T01:06:01;95778.47;;;2.13;67.49
69524;BME280;56723;42.694;23.286;2023-02-18T01:08:28;95783.88;;;2.08;68.09
69524;BME280;56723;42.694;23.286;2023-02-18T01:10:57;95779.38;;;1.85;68.72
69524;BME280;56723;42.694;23.286;2023-02-18T01:13:25;95782.63;;;1.87;69.28
69524;BME280;56723;42.694;23.286;2023-02-18T01:15:52;95785.09;;;1.88;69.59
69524;BME280;56723;42.694;23.286;2023-02-18T01:18:20;95778.56;;;1.84;69.68
69524;BME280;56723;42.694;23.286;2023-02-18T01:20:47;95780.28;;;1.84;69.96
69524;BME280;56723;42.694;23.286;2023-02-18T01:23:14;95778.72;;;1.81;70.03
69524;BME280;56723;42.694;23.286;2023-02-18T01:25:41;95778.72;;;1.81;69.75
69524;BME280;56723;42.694;23.286;2023-02-18T01:28:09;95778.66;;;1.83;69.63
69524;BME280;56723;42.694;23.286;2023-02-18T01:30:37;95777.91;;;1.81;70.08
69524;BME280;56723;42.694;23.286;2023-02-18T01:33:04;95778.00;;;1.79;69.88
69524;BME280;56723;42.694;23.286;2023-02-18T01:35:32;95771.97;;;1.80;69.74
69524;BME280;56723;42.694;23.286;2023-02-18T01:37:59;95783.22;;;1.78;69.95
69524;BME280;56723;42.694;23.286;2023-02-18T01:40:28;95774.63;;;1.79;69.52
69524;BME280;56723;42.694;23.286;2023-02-18T01:42:55;95775.00;;;1.72;69.15
69524;BME280;56723;42.694;23.286;2023-02-18T01:53:36;95788.31;;;1.78;69.53
69524;BME280;56723;42.694;23.286;2023-02-18T01:56:08;95799.00;;;1.70;69.78
69524;BME280;56723;42.694;23.286;2023-02-18T01:58:36;95796.53;;;1.68;69.78
69524;BME280;56723;42.694;23.286;2023-02-18T02:01:04;95782.09;;;1.67;69.48
69524;BME280;56723;42.694;23.286;2023-02-18T02:03:31;95789.06;;;1.65;69.75
69524;BME280;56723;42.694;23.286;2023-02-18T02:05:58;95796.19;;;1.60;70.32
69524;BME280;56723;42.694;23.286;2023-02-18T02:08:25;95779.13;;;1.61;70.25
69524;BME280;56723;42.694;23.286;2023-02-18T02:11:10;95784.50;;;1.56;70.56
69524;BME280;56723;42.694;23.286;2023-02-18T02:27:44;95790.69;;;1.38;71.84
69524;BME280;56723;42.694;23.286;2023-02-18T02:30:29;95788.06;;;1.39;71.70
69524;BME280;56723;42.694;23.286;2023-02-18T02:35:40;95797.63;;;1.36;72.32
69524;BME280;56723;42.694;23.286;2023-02-18T02:38:39;95774.66;;;1.36;72.43
69524;BME280;56723;42.694;23.286;2023-02-18T02:44:05;95754.59;;;1.30;73.02
69524;BME280;56723;42.694;23.286;2023-02-18T02:46:44;95764.59;;;1.33;72.98
69524;BME280;56723;42.694;23.286;2023-02-18T02:49:24;95757.78;;;1.33;72.76
69524;BME280;56723;42.694;23.286;2023-02-18T02:54:36;95769.81;;;1.31;72.99
69524;BME280;56723;42.694;23.286;2023-02-18T02:59:59;95775.94;;;1.29;73.39
69524;BME280;56723;42.694;23.286;2023-02-18T03:02:32;95779.66;;;1.23;73.69
69524;BME280;56723;42.694;23.286;2023-02-18T03:10:55;95782.03;;;1.26;73.58
69524;BME280;56723;42.694;23.286;2023-02-18T03:16:25;95773.75;;;1.23;74.01
69524;BME280;56723;42.694;23.286;2023-02-18T03:21:44;95781.91;;;1.14;74.50
69524;BME280;56723;42.694;23.286;2023-02-18T03:24:21;95794.75;;;1.12;74.24
69524;BME280;56723;42.694;23.286;2023-02-18T03:26:54;95798.94;;;0.99;74.87
69524;BME280;56723;42.694;23.286;2023-02-18T03:29:22;95817.06;;;0.94;75.20
69524;BME280;56723;42.694;23.286;2023-02-18T03:31:54;95803.75;;;0.89;76.00
69524;BME280;56723;42.694;23.286;2023-02-18T03:34:32;95819.91;;;0.90;76.32
69524;BME280;56723;42.694;23.286;2023-02-18T03:37:00;95801.38;;;0.86;75.91
69524;BME280;56723;42.694;23.286;2023-02-18T03:39:29;95819.91;;;0.90;76.07
69524;BME280;56723;42.694;23.286;2023-02-18T03:41:57;95815.78;;;0.87;76.39
69524;BME280;56723;42.694;23.286;2023-02-18T03:44:24;95828.63;;;0.86;76.61
69524;BME280;56723;42.694;23.286;2023-02-18T03:46:51;95820.88;;;0.87;76.96
69524;BME280;56723;42.694;23.286;2023-02-18T03:49:19;95817.03;;;0.80;76.65
69524;BME280;56723;42.694;23.286;2023-02-18T03:51:46;95835.28;;;0.88;76.97
69524;BME280;56723;42.694;23.286;2023-02-18T03:54:14;95842.03;;;0.89;76.89
69524;BME280;56723;42.694;23.286;2023-02-18T03:56:41;95834.88;;;0.80;76.88
69524;BME280;56723;42.694;23.286;2023-02-18T03:59:10;95827.31;;;0.79;76.76
69524;BME280;56723;42.694;23.286;2023-02-18T04:01:37;95835.88;;;0.78;76.70
69524;BME280;56723;42.694;23.286;2023-02-18T04:04:04;95827.97;;;0.82;76.29
69524;BME280;56723;42.694;23.286;2023-02-18T04:06:31;95817.59;;;0.85;76.38
69524;BME280;56723;42.694;23.286;2023-02-18T04:08:58;95814.13;;;0.86;76.21
69524;BME280;56723;42.694;23.286;2023-02-18T04:11:25;95824.69;;;0.80;76.91
69524;BME280;56723;42.694;23.286;2023-02-18T04:13:52;95816.44;;;0.75;77.08
69524;BME280;56723;42.694;23.286;2023-02-18T04:16:19;95818.47;;;0.70;77.44
69524;BME280;56723;42.694;23.286;2023-02-18T04:18:46;95813.38;;;0.70;77.65
69524;BME280;56723;42.694;23.286;2023-02-18T04:21:13;95793.28;;;0.64;77.78
69524;BME280;56723;42.694;23.286;2023-02-18T04:23:40;95792.97;;;0.70;77.75
69524;BME280;56723;42.694;23.286;2023-02-18T04:26:07;95803.31;;;0.67;77.91
69524;BME280;56723;42.694;23.286;2023-02-18T04:28:34;95794.69;;;0.69;77.98
69524;BME280;56723;42.694;23.286;2023-02-18T04:31:01;95801.50;;;0.69;78.16
69524;BME280;56723;42.694;23.286;2023-02-18T04:33:29;95801.69;;;0.66;78.72
69524;BME280;56723;42.694;23.286;2023-02-18T04:35:56;95791.47;;;0.66;78.96
69524;BME280;56723;42.694;23.286;2023-02-18T04:38:23;95794.84;;;0.66;78.69
69524;BME280;56723;42.694;23.286;2023-02-18T04:40:49;95796.25;;;0.72;78.68
69524;BME280;56723;42.694;23.286;2023-02-18T05:41:06;95810.25;;;0.65;80.53
69524;BME280;56723;42.694;23.286;2023-02-18T05:43:32;95812.38;;;0.73;80.19
69524;BME280;56723;42.694;23.286;2023-02-18T05:46:22;95805.91;;;0.81;79.97
69524;BME280;56723;42.694;23.286;2023-02-18T05:48:49;95810.69;;;0.87;79.61
69524;BME280;56723;42.694;23.286;2023-02-18T05:51:16;95813.69;;;0.94;79.66
69524;BME280;56723;42.694;23.286;2023-02-18T05:53:43;95829.22;;;1.05;79.27
69524;BME280;56723;42.694;23.286;2023-02-18T05:56:10;95818.75;;;1.10;79.06
69524;BME280;56723;42.694;23.286;2023-02-18T05:58:37;95827.34;;;1.23;77.87
69524;BME280;56723;42.694;23.286;2023-02-18T06:01:04;95836.19;;;1.31;77.38
69524;BME280;56723;42.694;23.286;2023-02-18T06:03:31;95831.47;;;1.39;77.23
69524;BME280;56723;42.694;23.286;2023-02-18T06:05:58;95838.94;;;1.43;77.00
69524;BME280;56723;42.694;23.286;2023-02-18T06:08:25;95822.63;;;1.45;76.89
69524;BME280;56723;42.694;23.286;2023-02-18T06:10:53;95821.34;;;1.52;76.05
69524;BME280;56723;42.694;23.286;2023-02-18T06:13:20;95828.66;;;1.58;75.73
69524;BME280;56723;42.694;23.286;2023-02-18T06:15:50;95826.47;;;1.66;75.85
69524;BME280;56723;42.694;23.286;2023-02-18T06:18:17;95827.72;;;1.73;77.47
69524;BME280;56723;42.694;23.286;2023-02-18T06:20:46;95830.84;;;1.79;75.81
69524;BME280;56723;42.694;23.286;2023-02-18T06:48:47;95818.00;;;2.21;72.40
69524;BME280;56723;42.694;23.286;2023-02-18T06:51:14;95802.44;;;2.24;72.39
69524;BME280;56723;42.694;23.286;2023-02-18T06:53:42;95802.53;;;2.37;72.78
69524;BME280;56723;42.694;23.286;2023-02-18T06:56:09;95796.72;;;2.48;72.12
69524;BME280;56723;42.694;23.286;2023-02-18T06:58:37;95800.13;;;2.61;71.23
69524;BME280;56723;42.694;23.286;2023-02-18T07:01:04;95812.69;;;2.78;71.45
69524;BME280;56723;42.694;23.286;2023-02-18T07:03:31;95814.56;;;2.89;71.54
69524;BME280;56723;42.694;23.286;2023-02-18T07:05:58;95815.81;;;2.96;70.87
69524;BME280;56723;42.694;23.286;2023-02-18T07:08:25;95809.25;;;3.04;69.94
69524;BME280;56723;42.694;23.286;2023-02-18T07:10:52;95801.91;;;3.12;69.02
69524;BME280;56723;42.694;23.286;2023-02-18T07:13:19;95799.44;;;3.24;70.63
69524;BME280;56723;42.694;23.286;2023-02-18T07:15:46;95797.19;;;3.44;70.04
69524;BME280;56723;42.694;23.286;2023-02-18T07:18:13;95793.19;;;3.53;68.46
69524;BME280;56723;42.694;23.286;2023-02-18T07:20:40;95782.34;;;3.62;66.66
69524;BME280;56723;42.694;23.286;2023-02-18T07:23:07;95782.03;;;3.67;66.09
69524;BME280;56723;42.694;23.286;2023-02-18T07:25:34;95798.22;;;3.67;66.11
69524;BME280;56723;42.694;23.286;2023-02-18T07:28:01;95785.47;;;3.78;65.33
69524;BME280;56723;42.694;23.286;2023-02-18T07:30:27;95784.25;;;3.84;64.87
69524;BME280;56723;42.694;23.286;2023-02-18T07:32:54;95789.75;;;3.91;64.75
69524;BME280;56723;42.694;23.286;2023-02-18T07:35:21;95797.03;;;3.97;64.65
69524;BME280;56723;42.694;23.286;2023-02-18T07:37:49;95788.94;;;4.03;63.68
69524;BME280;56723;42.694;23.286;2023-02-18T07:40:19;95795.44;;;4.20;62.96
69524;BME280;56723;42.694;23.286;2023-02-18T07:42:47;95800.81;;;4.40;62.51
69524;BME280;56723;42.694;23.286;2023-02-18T07:45:14;95818.50;;;4.56;60.83
69524;BME280;56723;42.694;23.286;2023-02-18T07:47:43;95813.31;;;4.69;62.01
69524;BME280;56723;42.694;23.286;2023-02-18T07:50:11;95802.19;;;4.81;60.79
69524;BME280;56723;42.694;23.286;2023-02-18T07:52:38;95813.41;;;4.91;58.72
69524;BME280;56723;42.694;23.286;2023-02-18T07:55:05;95813.19;;;4.94;58.62
69524;BME280;56723;42.694;23.286;2023-02-18T07:57:32;95805.41;;;5.07;57.99
69524;BME280;56723;42.694;23.286;2023-02-18T07:59:59;95802.69;;;5.32;74.43
69524;BME280;56723;42.694;23.286;2023-02-18T08:02:26;95808.88;;;5.41;57.57
69524;BME280;56723;42.694;23.286;2023-02-18T08:04:53;95797.09;;;5.49;58.99
69524;BME280;56723;42.694;23.286;2023-02-18T08:07:20;95809.84;;;5.62;56.17
69524;BME280;56723;42.694;23.286;2023-02-18T08:09:48;95812.66;;;5.70;55.32
69524;BME280;56723;42.694;23.286;2023-02-18T08:12:16;95814.53;;;5.68;54.71
69524;BME280;56723;42.694;23.286;2023-02-18T08:14:43;95793.84;;;5.70;54.46
69524;BME280;56723;42.694;23.286;2023-02-18T08:17:10;95801.00;;;5.88;53.85
69524;BME280;56723;42.694;23.286;2023-02-18T08:19:37;95783.81;;;6.00;53.20
69524;BME280;56723;42.694;23.286;2023-02-18T08:22:04;95781.69;;;6.05;52.78
69524;BME280;56723;42.694;23.286;2023-02-18T08:24:31;95777.22;;;6.18;52.85
69524;BME280;56723;42.694;23.286;2023-02-18T08:26:58;95765.41;;;6.27;52.03
69524;BME280;56723;42.694;23.286;2023-02-18T08:29:27;95770.88;;;6.34;52.13
69524;BME280;56723;42.694;23.286;2023-02-18T08:31:54;95776.13;;;6.43;51.37
69524;BME280;56723;42.694;23.286;2023-02-18T08:34:24;95772.81;;;6.52;51.21
69524;BME280;56723;42.694;23.286;2023-02-18T08:36:51;95769.03;;;6.68;50.84
69524;BME280;56723;42.694;23.286;2023-02-18T08:39:18;95774.72;;;6.82;50.19
69524;BME280;56723;42.694;23.286;2023-02-18T08:41:45;95760.25;;;6.91;50.35
69524;BME280;56723;42.694;23.286;2023-02-18T08:44:12;95763.47;;;7.04;49.86
69524;BME280;56723;42.694;23.286;2023-02-18T08:46:39;95768.06;;;7.21;49.59
69524;BME280;56723;42.694;23.286;2023-02-18T08:49:06;95765.97;;;7.36;49.55
69524;BME280;56723;42.694;23.286;2023-02-18T08:51:33;95759.50;;;7.42;49.37
69524;BME280;56723;42.694;23.286;2023-02-18T08:54:01;95766.53;;;7.60;48.90
69524;BME280;56723;42.694;23.286;2023-02-18T08:56:28;95767.81;;;7.76;48.59
69524;BME280;56723;42.694;23.286;2023-02-18T08:58:54;95760.78;;;7.87;48.48
69524;BME280;56723;42.694;23.286;2023-02-18T09:01:21;95766.00;;;8.07;52.24
69524;BME280;56723;42.694;23.286;2023-02-18T09:03:48;95771.09;;;8.27;47.10
69524;BME280;56723;42.694;23.286;2023-02-18T09:06:16;95757.56;;;8.45;45.96
69524;BME280;56723;42.694;23.286;2023-02-18T09:08:42;95763.97;;;8.60;45.43
69524;BME280;56723;42.694;23.286;2023-02-18T09:11:10;95764.50;;;8.73;44.69
69524;BME280;56723;42.694;23.286;2023-02-18T09:13:37;95760.31;;;8.82;44.49
69524;BME280;56723;42.694;23.286;2023-02-18T09:16:07;95758.28;;;9.05;43.83
69524;BME280;56723;42.694;23.286;2023-02-18T09:18:35;95759.34;;;9.21;43.17
69524;BME280;56723;42.694;23.286;2023-02-18T09:21:04;95763.53;;;9.42;42.85
69524;BME280;56723;42.694;23.286;2023-02-18T09:23:32;95759.66;;;9.55;42.24
69524;BME280;56723;42.694;23.286;2023-02-18T09:26:07;95759.56;;;9.84;42.39
69524;BME280;56723;42.694;23.286;2023-02-18T09:28:34;95750.72;;;10.14;41.01
69524;BME280;56723;42.694;23.286;2023-02-18T09:31:06;95741.00;;;10.26;40.24
69524;BME280;56723;42.694;23.286;2023-02-18T09:33:35;95738.41;;;10.44;40.50
69524;BME280;56723;42.694;23.286;2023-02-18T09:36:04;95732.91;;;10.56;40.02
69524;BME280;56723;42.694;23.286;2023-02-18T09:38:31;95731.13;;;10.74;40.11
69524;BME280;56723;42.694;23.286;2023-02-18T09:40:59;95734.66;;;11.09;40.07
69524;BME280;56723;42.694;23.286;2023-02-18T09:45:58;95732.38;;;11.58;38.61
69524;BME280;56723;42.694;23.286;2023-02-18T09:48:27;95730.09;;;11.81;38.30
69524;BME280;56723;42.694;23.286;2023-02-18T09:50:55;95727.28;;;12.08;37.98
69524;BME280;56723;42.694;23.286;2023-02-18T09:53:23;95730.72;;;12.25;36.63
69524;BME280;56723;42.694;23.286;2023-02-18T09:55:53;95717.81;;;12.41;35.91
69524;BME280;56723;42.694;23.286;2023-02-18T09:58:24;95712.63;;;12.49;36.05
69524;BME280;56723;42.694;23.286;2023-02-18T10:03:42;95705.84;;;12.89;35.90
69524;BME280;56723;42.694;23.286;2023-02-18T10:06:33;95700.47;;;13.31;34.06
69524;BME280;56723;42.694;23.286;2023-02-18T10:11:47;95668.50;;;14.00;32.69
69524;BME280;56723;42.694;23.286;2023-02-18T10:14:15;95684.50;;;14.28;31.38
69524;BME280;56723;42.694;23.286;2023-02-18T10:16:43;95669.84;;;14.58;31.35
69524;BME280;56723;42.694;23.286;2023-02-18T10:19:38;95675.75;;;14.98;30.09
69524;BME280;56723;42.694;23.286;2023-02-18T10:22:08;95687.50;;;15.31;31.06
69524;BME280;56723;42.694;23.286;2023-02-18T10:24:45;95671.19;;;15.67;29.58
69524;BME280;56723;42.694;23.286;2023-02-18T10:27:42;95659.38;;;15.85;28.06
69524;BME280;56723;42.694;23.286;2023-02-18T10:30:47;95663.59;;;15.86;27.57
69524;BME280;56723;42.694;23.286;2023-02-18T10:35:58;95657.75;;;15.84;26.46
69524;BME280;56723;42.694;23.286;2023-02-18T10:46:57;95640.25;;;15.85;27.32
69524;BME280;56723;42.694;23.286;2023-02-18T10:52:13;95620.81;;;15.73;28.10
69524;BME280;56723;42.694;23.286;2023-02-18T10:55:01;95639.09;;;15.73;28.71
69524;BME280;56723;42.694;23.286;2023-02-18T10:57:30;95625.56;;;15.84;28.38
69524;BME280;56723;42.694;23.286;2023-02-18T11:00:00;95625.72;;;16.12;27.88
69524;BME280;56723;42.694;23.286;2023-02-18T11:02:31;95617.47;;;16.15;28.39
69524;BME280;56723;42.694;23.286;2023-02-18T11:05:11;95626.63;;;16.04;28.08
69524;BME280;56723;42.694;23.286;2023-02-18T11:07:46;95626.47;;;15.91;28.53
69524;BME280;56723;42.694;23.286;2023-02-18T11:10:18;95608.63;;;15.80;26.87
69524;BME280;56723;42.694;23.286;2023-02-18T11:12:55;95616.38;;;15.88;27.29
69524;BME280;56723;42.694;23.286;2023-02-18T11:15:24;95619.25;;;15.93;26.55
69524;BME280;56723;42.694;23.286;2023-02-18T11:17:53;95588.75;;;15.64;26.70
69524;BME280;56723;42.694;23.286;2023-02-18T11:20:31;95603.59;;;15.64;27.25
69524;BME280;56723;42.694;23.286;2023-02-18T11:23:14;95601.97;;;15.33;27.48
69524;BME280;56723;42.694;23.286;2023-02-18T11:25:53;95592.59;;;15.09;28.16
69524;BME280;56723;42.694;23.286;2023-02-18T11:28:25;95591.50;;;15.04;28.21
69524;BME280;56723;42.694;23.286;2023-02-18T11:30:56;95579.47;;;15.03;28.51
69524;BME280;56723;42.694;23.286;2023-02-18T11:33:37;95563.34;;;14.99;28.06
69524;BME280;56723;42.694;23.286;2023-02-18T11:36:19;95575.22;;;15.31;27.90
69524;BME280;56723;42.694;23.286;2023-02-18T11:38:57;95571.00;;;15.59;27.72
69524;BME280;56723;42.694;23.286;2023-02-18T11:41:40;95558.16;;;15.94;27.11
69524;BME280;56723;42.694;23.286;2023-02-18T11:44:27;95552.13;;;16.36;25.85
69524;BME280;56723;42.694;23.286;2023-02-18T11:49:57;95545.31;;;16.84;24.59
69524;BME280;56723;42.694;23.286;2023-02-18T11:52:27;95543.00;;;17.03;24.39
69524;BME280;56723;42.694;23.286;2023-02-18T11:57:33;95534.59;;;17.14;24.73
69524;BME280;56723;42.694;23.286;2023-02-18T12:00:03;95529.69;;;16.98;25.05
69524;BME280;56723;42.694;23.286;2023-02-18T12:02:36;95545.00;;;17.01;24.71
69524;BME280;56723;42.694;23.286;2023-02-18T12:05:21;95530.41;;;16.85;25.01
69524;BME280;56723;42.694;23.286;2023-02-18T12:08:02;95523.13;;;16.80;24.99
69524;BME280;56723;42.694;23.286;2023-02-18T12:10:48;95519.56;;;16.88;25.32
69524;BME280;56723;42.694;23.286;2023-02-18T12:13:36;95509.16;;;17.01;25.45
69524;BME280;56723;42.694;23.286;2023-02-18T12:21:34;95514.34;;;16.94;25.97
69524;BME280;56723;42.694;23.286;2023-02-18T12:24:09;95510.84;;;16.81;26.57
69524;BME280;56723;42.694;23.286;2023-02-18T12:26:45;95507.19;;;16.54;26.76
69524;BME280;56723;42.694;23.286;2023-02-18T12:37:55;95485.25;;;16.76;26.75
69524;BME280;56723;42.694;23.286;2023-02-18T13:04:51;95449.84;;;16.80;27.10
69524;BME280;56723;42.694;23.286;2023-02-18T13:13:10;95470.50;;;17.03;26.62
69524;BME280;56723;42.694;23.286;2023-02-18T13:15:54;95474.38;;;17.14;26.61
69524;BME280;56723;42.694;23.286;2023-02-18T13:18:33;95469.31;;;17.06;26.78
69524;BME280;56723;42.694;23.286;2023-02-18T13:21:07;95463.28;;;17.05;27.49
69524;BME280;56723;42.694;23.286;2023-02-18T13:26:11;95474.22;;;16.59;28.66
69524;BME280;56723;42.694;23.286;2023-02-18T13:28:45;95475.44;;;16.29;29.45
69524;BME280;56723;42.694;23.286;2023-02-18T13:37:12;95485.28;;;15.84;30.36
69524;BME280;56723;42.694;23.286;2023-02-18T13:39:49;95480.53;;;15.73;31.10
69524;BME280;56723;42.694;23.286;2023-02-18T13:47:39;95466.25;;;15.54;30.93
69524;BME280;56723;42.694;23.286;2023-02-18T13:50:26;95478.28;;;15.34;31.44
69524;BME280;56723;42.694;23.286;2023-02-18T13:53:13;95464.44;;;15.04;31.47
69524;BME280;56723;42.694;23.286;2023-02-18T13:58:42;95466.63;;;15.01;31.64
69524;BME280;56723;42.694;23.286;2023-02-18T14:06:14;95478.41;;;14.82;32.02
69524;BME280;56723;42.694;23.286;2023-02-18T14:08:44;95459.88;;;14.77;32.12
69524;BME280;56723;42.694;23.286;2023-02-18T14:16:07;95475.88;;;14.74;32.30
69524;BME280;56723;42.694;23.286;2023-02-18T14:21:17;95474.31;;;14.50;32.75
69524;BME280;56723;42.694;23.286;2023-02-18T14:26:24;95469.22;;;14.34;32.61
69524;BME280;56723;42.694;23.286;2023-02-18T14:28:58;95474.25;;;14.43;33.68
69524;BME280;56723;42.694;23.286;2023-02-18T14:31:47;95479.41;;;14.29;32.79
69524;BME280;56723;42.694;23.286;2023-02-18T14:35:05;95485.00;;;14.17;33.15
69524;BME280;56723;42.694;23.286;2023-02-18T14:37:48;95484.97;;;14.26;33.03
69524;BME280;56723;42.694;23.286;2023-02-18T14:43:09;95480.25;;;14.44;32.69
69524;BME280;56723;42.694;23.286;2023-02-18T14:48:42;95475.88;;;14.59;32.59
69524;BME280;56723;42.694;23.286;2023-02-18T14:51:19;95475.41;;;14.70;32.27
69524;BME280;56723;42.694;23.286;2023-02-18T14:53:48;95464.09;;;14.78;32.75
69524;BME280;56723;42.694;23.286;2023-02-18T14:56:18;95459.16;;;14.83;32.73
69524;BME280;56723;42.694;23.286;2023-02-18T14:58:49;95463.63;;;14.89;32.29
69524;BME280;56723;42.694;23.286;2023-02-18T15:01:25;95461.31;;;14.79;32.52
69524;BME280;56723;42.694;23.286;2023-02-18T15:03:54;95464.53;;;14.67;33.06
69524;BME280;56723;42.694;23.286;2023-02-18T15:06:32;95469.03;;;14.58;32.79
69524;BME280;56723;42.694;23.286;2023-02-18T15:09:21;95455.88;;;14.51;32.75
69524;BME280;56723;42.694;23.286;2023-02-18T15:12:00;95461.84;;;14.45;33.16
69524;BME280;56723;42.694;23.286;2023-02-18T15:14:33;95467.41;;;14.19;33.35
69524;BME280;56723;42.694;23.286;2023-02-18T15:17:01;95467.38;;;14.05;33.84
69524;BME280;56723;42.694;23.286;2023-02-18T15:19:35;95468.00;;;13.84;34.12
69524;BME280;56723;42.694;23.286;2023-02-18T15:22:04;95472.63;;;13.74;34.34
69524;BME280;56723;42.694;23.286;2023-02-18T15:24:37;95474.03;;;13.62;34.76
69524;BME280;56723;42.694;23.286;2023-02-18T15:27:15;95466.63;;;13.50;34.85
69524;BME280;56723;42.694;23.286;2023-02-18T15:29:43;95467.16;;;13.38;34.97
69524;BME280;56723;42.694;23.286;2023-02-18T15:32:19;95451.44;;;13.31;35.14
69524;BME280;56723;42.694;23.286;2023-02-18T15:34:52;95456.38;;;13.18;35.42
69524;BME280;56723;42.694;23.286;2023-02-18T15:37:19;95453.13;;;13.08;35.71
69524;BME280;56723;42.694;23.286;2023-02-18T15:39:47;95456.56;;;13.00;35.76
69524;BME280;56723;42.694;23.286;2023-02-18T15:42:24;95457.28;;;12.94;35.98
69524;BME280;56723;42.694;23.286;2023-02-18T15:44:57;95451.13;;;12.87;36.17
69524;BME280;56723;42.694;23.286;2023-02-18T15:47:27;95443.84;;;12.74;36.35
69524;BME280;56723;42.694;23.286;2023-02-18T15:49:57;95446.78;;;12.71;36.60
69524;BME280;56723;42.694;23.286;2023-02-18T15:52:31;95438.00;;;12.64;36.88
69524;BME280;56723;42.694;23.286;2023-02-18T15:57:55;95444.75;;;12.42;37.41
69524;BME280;56723;42.694;23.286;2023-02-18T16:00:28;95436.47;;;12.31;37.86
69524;BME280;56723;42.694;23.286;2023-02-18T16:05:46;95437.97;;;12.09;38.44
69524;BME280;56723;42.694;23.286;2023-02-18T16:08:14;95446.72;;;12.08;38.85
69524;BME280;56723;42.694;23.286;2023-02-18T16:10:48;95437.34;;;11.99;38.99
69524;BME280;56723;42.694;23.286;2023-02-18T16:13:19;95442.03;;;11.95;39.14
69524;BME280;56723;42.694;23.286;2023-02-18T16:15:48;95438.81;;;11.85;39.30
69524;BME280;56723;42.694;23.286;2023-02-18T16:21:20;95453.34;;;11.70;39.71
69524;BME280;56723;42.694;23.286;2023-02-18T16:24:00;95454.03;;;11.64;39.93
69524;BME280;56723;42.694;23.286;2023-02-18T16:26:40;95444.28;;;11.58;40.08
69524;BME280;56723;42.694;23.286;2023-02-18T16:31:42;95442.66;;;11.49;39.82
69524;BME280;56723;42.694;23.286;2023-02-18T16:34:09;95440.53;;;11.52;39.84
69524;BME280;56723;42.694;23.286;2023-02-18T16:36:38;95441.34;;;11.53;39.68
69524;BME280;56723;42.694;23.286;2023-02-18T16:39:26;95442.00;;;11.55;39.48
69524;BME280;56723;42.694;23.286;2023-02-18T16:41:53;95444.59;;;11.55;39.68
69524;BME280;56723;42.694;23.286;2023-02-18T16:44:20;95448.81;;;11.48;39.74
69524;BME280;56723;42.694;23.286;2023-02-18T16:46:47;95458.84;;;11.51;39.88
69524;BME280;56723;42.694;23.286;2023-02-18T16:49:15;95460.81;;;11.49;39.68
69524;BME280;56723;42.694;23.286;2023-02-18T16:51:43;95452.53;;;11.45;39.80
69524;BME280;56723;42.694;23.286;2023-02-18T16:54:14;95459.50;;;11.44;39.88
69524;BME280;56723;42.694;23.286;2023-02-18T16:56:41;95446.34;;;11.38;39.80
69524;BME280;56723;42.694;23.286;2023-02-18T16:59:08;95455.56;;;11.32;39.93
69524;BME280;56723;42.694;23.286;2023-02-18T17:01:37;95451.38;;;11.31;39.79
69524;BME280;56723;42.694;23.286;2023-02-18T17:04:13;95451.84;;;11.27;40.79
69524;BME280;56723;42.694;23.286;2023-02-18T17:06:41;95456.38;;;11.25;40.38
69524;BME280;56723;42.694;23.286;2023-02-18T17:09:19;95463.97;;;11.18;40.34
69524;BME280;56723;42.694;23.286;2023-02-18T17:11:52;95454.56;;;11.09;40.42
69524;BME280;56723;42.694;23.286;2023-02-18T17:14:23;95454.38;;;11.02;40.80
69524;BME280;56723;42.694;23.286;2023-02-18T17:16:51;95453.03;;;10.98;40.73
69524;BME280;56723;42.694;23.286;2023-02-18T17:19:19;95450.13;;;10.93;41.25
69524;BME280;56723;42.694;23.286;2023-02-18T17:21:49;95460.81;;;10.90;41.47
69524;BME280;56723;42.694;23.286;2023-02-18T17:24:17;95446.19;;;10.81;41.44